Time;durP1;ratioP1;P1;durP2;ratioP2;P2;SDS_P1;SDS_P2;PMS_P1;PMS_P2;Temp;Humidity;BMP_temperature;BMP_pressure;BME280_temperature;BME280_humidity;BME280_pressure;Samples;Min_cycle;Max_cycle;Signal;HPM_P1;HPM_P2
2022/04/07 00:00:05;;;;;;;1.97;0.83;;;13.50;99.90;;;;;;5034099;28;20579;-58
2022/04/07 00:02:32;;;;;;;1.20;1.00;;;13.60;99.90;;;;;;5034866;28;20214;-58
2022/04/07 00:04:58;;;;;;;2.30;1.10;;;13.50;99.90;;;;;;5033314;28;20239;-58
2022/04/07 00:07:25;;;;;;;0.70;0.70;;;13.50;99.90;;;;;;5034479;28;20206;-59
2022/04/07 00:09:53;;;;;;;1.30;1.17;;;13.30;99.90;;;;;;5034183;28;20240;-57
2022/04/07 00:12:20;;;;;;;1.30;0.97;;;13.20;99.90;;;;;;5033663;28;20256;-57
2022/04/07 00:14:47;;;;;;;1.47;1.10;;;13.00;99.90;;;;;;5033297;28;20253;-58
2022/04/07 00:17:14;;;;;;;1.30;0.90;;;12.80;99.90;;;;;;5033692;28;20210;-59
2022/04/07 00:19:40;;;;;;;3.97;1.30;;;12.70;99.90;;;;;;5033599;28;20256;-58
2022/04/07 00:22:07;;;;;;;1.40;1.30;;;12.70;99.90;;;;;;5033601;28;20203;-58
2022/04/07 00:24:34;;;;;;;1.67;1.20;;;12.60;99.90;;;;;;5033093;28;20294;-58
2022/04/07 00:27:02;;;;;;;1.67;1.07;;;12.50;99.90;;;;;;5033871;28;20206;-57
2022/04/07 00:29:28;;;;;;;2.13;1.30;;;12.50;99.90;;;;;;5033202;28;20206;-57
2022/04/07 00:31:57;;;;;;;1.60;1.07;;;12.50;99.90;;;;;;5033464;28;20231;-57
2022/04/07 00:34:24;;;;;;;1.40;1.00;;;12.50;99.90;;;;;;5033081;28;20233;-58
2022/04/07 00:36:51;;;;;;;1.43;1.20;;;12.40;99.90;;;;;;5033406;28;20210;-57
2022/04/07 00:39:18;;;;;;;0.90;0.90;;;12.40;99.90;;;;;;5033264;28;20210;-59
2022/04/07 00:41:45;;;;;;;1.30;1.10;;;12.20;99.90;;;;;;5033073;28;20198;-58
2022/04/07 00:44:14;;;;;;;1.33;1.13;;;12.10;99.90;;;;;;5033166;28;20292;-57
2022/04/07 00:46:41;;;;;;;1.20;1.10;;;11.90;99.90;;;;;;5033144;28;20214;-58
2022/04/07 00:49:09;;;;;;;1.20;1.10;;;11.80;99.90;;;;;;5032899;28;20240;-58
2022/04/07 00:51:39;;;;;;;1.47;1.00;;;11.70;99.90;;;;;;5033170;28;20253;-57
2022/04/07 00:54:07;;;;;;;1.23;1.13;;;11.60;99.90;;;;;;5032681;28;20241;-65
2022/04/07 00:56:35;;;;;;;1.30;1.10;;;11.60;99.90;;;;;;5032501;28;20214;-57
2022/04/07 00:59:02;;;;;;;1.00;0.90;;;11.60;99.90;;;;;;5033165;28;20302;-58
2022/04/07 01:01:31;;;;;;;1.10;1.00;;;11.70;99.90;;;;;;5033108;28;20206;-58
2022/04/07 01:03:58;;;;;;;1.30;1.00;;;11.80;99.90;;;;;;5032909;28;20230;-58
2022/04/07 01:06:25;;;;;;;1.17;1.07;;;11.90;99.90;;;;;;5032540;28;20217;-58
2022/04/07 01:08:53;;;;;;;2.70;1.07;;;12.00;99.90;;;;;;5032926;28;20215;-57
2022/04/07 01:11:20;;;;;;;0.73;0.73;;;12.00;99.90;;;;;;5032892;28;20596;-58
2022/04/07 01:13:49;;;;;;;1.00;0.90;;;12.10;99.90;;;;;;5032845;28;20222;-58
2022/04/07 01:16:16;;;;;;;1.77;0.87;;;12.20;99.90;;;;;;5032151;28;20214;-58
2022/04/07 01:18:46;;;;;;;1.60;1.10;;;12.20;99.90;;;;;;5033309;28;20233;-58
2022/04/07 01:21:15;;;;;;;0.93;0.90;;;12.30;99.90;;;;;;5032695;28;20203;-57
2022/04/07 01:23:50;;;;;;;0.97;0.90;;;12.20;99.90;;;;;;5032983;28;20289;-58
2022/04/07 01:26:19;;;;;;;1.23;0.70;;;12.10;99.90;;;;;;5032027;28;20209;-57
2022/04/07 01:28:48;;;;;;;0.70;0.70;;;12.10;99.90;;;;;;5032724;28;20210;-58
2022/04/07 01:31:15;;;;;;;0.70;0.70;;;12.10;99.90;;;;;;5032375;28;20313;-57
2022/04/07 01:33:42;;;;;;;0.60;0.60;;;12.10;99.90;;;;;;5032290;28;20210;-58
2022/04/07 01:36:10;;;;;;;1.10;0.70;;;12.10;99.90;;;;;;5031961;28;20209;-58
2022/04/07 01:38:37;;;;;;;1.13;0.70;;;12.10;99.90;;;;;;5032187;28;20213;-58
2022/04/07 01:41:04;;;;;;;1.00;0.83;;;12.20;99.90;;;;;;5032330;28;20240;-58
2022/04/07 01:43:34;;;;;;;0.83;0.70;;;12.20;99.90;;;;;;5032155;28;20210;-57
2022/04/07 01:46:01;;;;;;;0.87;0.57;;;12.20;99.90;;;;;;5032105;28;20276;-57
2022/04/07 01:48:29;;;;;;;0.80;0.70;;;12.40;99.90;;;;;;5032118;28;20622;-58
2022/04/07 01:50:57;;;;;;;0.93;0.80;;;12.40;99.90;;;;;;5032299;28;20213;-58
2022/04/07 01:53:25;;;;;;;0.70;0.60;;;12.40;99.90;;;;;;5032265;28;20598;-58
2022/04/07 01:55:53;;;;;;;0.83;0.50;;;12.30;99.90;;;;;;5040832;22;20235;-60
2022/04/07 01:58:19;;;;;;;0.67;0.53;;;12.30;99.90;;;;;;5012271;28;20666;-60
2022/04/07 02:00:47;;;;;;;1.60;0.57;;;12.20;99.90;;;;;;5012360;28;20207;-60
2022/04/07 02:03:14;;;;;;;0.63;0.60;;;12.20;99.90;;;;;;5012092;28;20211;-61
2022/04/07 02:05:41;;;;;;;0.53;0.53;;;12.10;99.90;;;;;;5012106;28;20230;-61
2022/04/07 02:08:20;;;;;;;1.67;0.50;;;12.00;99.90;;;;;;5012262;28;20611;-61
2022/04/07 02:10:47;;;;;;;1.40;0.77;;;12.00;99.90;;;;;;5012006;28;20617;-62
2022/04/07 02:13:14;;;;;;;0.70;0.70;;;12.00;99.90;;;;;;5012650;28;20219;-61
2022/04/07 02:15:41;;;;;;;0.40;0.40;;;12.10;99.90;;;;;;5011662;28;20238;-60
2022/04/07 02:18:09;;;;;;;1.20;0.57;;;12.20;99.90;;;;;;5012244;28;20206;-60
2022/04/07 02:20:36;;;;;;;0.97;0.60;;;12.20;99.90;;;;;;5012154;28;20211;-60
2022/04/07 02:23:02;;;;;;;0.80;0.70;;;12.10;99.90;;;;;;5012071;28;20203;-60
2022/04/07 02:25:29;;;;;;;0.50;0.43;;;12.20;99.90;;;;;;5011825;28;20229;-60
2022/04/07 02:27:56;;;;;;;1.37;0.60;;;12.20;99.90;;;;;;5013644;28;20261;-60
2022/04/07 02:30:23;;;;;;;0.63;0.47;;;12.20;99.90;;;;;;5016201;28;20207;-61
2022/04/07 02:32:50;;;;;;;1.03;0.67;;;12.30;99.90;;;;;;5016018;28;20227;-60
2022/04/07 02:35:18;;;;;;;0.40;0.40;;;12.30;99.90;;;;;;5015692;28;20284;-60
2022/04/07 02:37:44;;;;;;;1.27;0.67;;;12.40;99.90;;;;;;5015904;28;20211;-60
2022/04/07 02:40:13;;;;;;;1.60;0.90;;;12.40;99.90;;;;;;5015738;28;20211;-60
2022/04/07 02:42:40;;;;;;;2.40;1.23;;;12.50;99.90;;;;;;5015593;28;20261;-60
2022/04/07 02:45:08;;;;;;;2.50;1.10;;;12.60;99.90;;;;;;5015592;28;20461;-60
2022/04/07 02:47:38;;;;;;;1.27;0.83;;;12.60;99.90;;;;;;5015778;28;20214;-60
2022/04/07 02:50:06;;;;;;;1.40;0.83;;;12.60;99.90;;;;;;5016077;28;20203;-60
2022/04/07 02:52:34;;;;;;;0.63;0.63;;;12.60;99.90;;;;;;5016201;28;20230;-60
2022/04/07 02:55:01;;;;;;;1.87;1.00;;;12.70;99.90;;;;;;5015523;28;20235;-60
2022/04/07 02:57:30;;;;;;;1.70;0.93;;;12.70;99.90;;;;;;5015546;28;20206;-60
2022/04/07 02:59:57;;;;;;;2.07;0.80;;;12.70;99.90;;;;;;5015735;28;20215;-60
2022/04/07 03:02:24;;;;;;;0.63;0.63;;;12.60;99.90;;;;;;5015305;28;20698;-61
2022/04/07 03:04:51;;;;;;;1.33;1.07;;;12.70;99.90;;;;;;5014952;28;20227;-61
2022/04/07 03:07:19;;;;;;;1.20;1.07;;;12.60;99.90;;;;;;5015204;28;20211;-61
2022/04/07 03:09:47;;;;;;;2.03;1.30;;;12.60;99.90;;;;;;5015368;28;20238;-60
2022/04/07 03:12:14;;;;;;;2.47;1.57;;;12.50;99.90;;;;;;5015308;28;20227;-61
2022/04/07 03:14:41;;;;;;;1.97;1.30;;;12.40;99.90;;;;;;5014978;28;20230;-61
2022/04/07 03:17:08;;;;;;;5.50;4.30;;;12.40;99.90;;;;;;5015012;28;20214;-60
2022/04/07 03:19:35;;;;;;;2.33;1.33;;;12.40;99.90;;;;;;5015041;28;20207;-60
2022/04/07 03:22:02;;;;;;;1.00;0.70;;;12.40;99.90;;;;;;5014962;28;20203;-60
2022/04/07 03:24:29;;;;;;;1.23;0.83;;;12.40;99.90;;;;;;5014921;28;20284;-60
2022/04/07 03:26:57;;;;;;;1.10;0.60;;;12.30;99.90;;;;;;5015096;28;20215;-61
2022/04/07 03:29:23;;;;;;;0.70;0.60;;;12.30;99.90;;;;;;5015040;28;20203;-61
2022/04/07 03:31:50;;;;;;;2.63;0.73;;;12.30;99.90;;;;;;5014861;28;20227;-61
2022/04/07 03:34:17;;;;;;;0.93;0.83;;;12.30;99.90;;;;;;5014725;28;20265;-61
2022/04/07 03:36:43;;;;;;;1.40;0.80;;;12.30;99.90;;;;;;5014469;28;20203;-61
2022/04/07 03:39:10;;;;;;;0.57;0.50;;;12.20;99.90;;;;;;5014566;28;20245;-60
2022/04/07 03:41:37;;;;;;;1.17;0.73;;;12.30;99.90;;;;;;5014839;28;20262;-60
2022/04/07 03:44:07;;;;;;;1.57;0.83;;;12.30;99.90;;;;;;5014583;28;20214;-60
2022/04/07 03:46:34;;;;;;;1.60;0.63;;;12.30;99.90;;;;;;5014190;28;20678;-60
2022/04/07 03:49:01;;;;;;;0.60;0.60;;;12.20;99.90;;;;;;5014446;28;20262;-60
2022/04/07 03:51:27;;;;;;;1.53;1.07;;;12.30;99.90;;;;;;5014232;28;20592;-60
2022/04/07 03:53:54;;;;;;;0.97;0.60;;;12.30;99.90;;;;;;5014609;28;20207;-61
2022/04/07 03:56:21;;;;;;;2.03;0.90;;;12.30;99.90;;;;;;5014029;28;20246;-61
2022/04/07 03:58:48;;;;;;;0.90;0.47;;;12.30;99.90;;;;;;5014447;28;20207;-61
2022/04/07 04:01:17;;;;;;;0.40;0.40;;;12.30;99.90;;;;;;5014297;28;20561;-60
2022/04/07 04:03:44;;;;;;;0.93;0.63;;;12.30;99.90;;;;;;5014082;28;20200;-62
2022/04/07 04:06:10;;;;;;;1.00;0.70;;;12.30;99.90;;;;;;5013684;28;20289;-60
2022/04/07 04:08:37;;;;;;;1.73;1.20;;;12.30;99.90;;;;;;5014383;28;20269;-60
2022/04/07 04:11:04;;;;;;;2.30;1.40;;;12.30;99.90;;;;;;5014178;28;20242;-61
2022/04/07 04:13:31;;;;;;;0.87;0.77;;;12.30;99.90;;;;;;5013997;28;20276;-60
2022/04/07 04:15:58;;;;;;;1.47;1.10;;;12.30;99.90;;;;;;5013641;28;20234;-62
2022/04/07 04:18:26;;;;;;;1.30;0.70;;;12.30;99.90;;;;;;5014124;28;20746;-61
2022/04/07 04:20:53;;;;;;;1.53;0.77;;;12.20;99.90;;;;;;5014609;28;20211;-61
2022/04/07 04:23:20;;;;;;;1.10;0.50;;;12.20;99.90;;;;;;5014324;28;20203;-60
2022/04/07 04:25:47;;;;;;;1.90;0.53;;;12.10;99.90;;;;;;5013825;28;20223;-60
2022/04/07 04:28:14;;;;;;;0.70;0.60;;;12.10;99.90;;;;;;5013805;28;20746;-60
2022/04/07 04:30:40;;;;;;;1.50;0.90;;;11.90;99.90;;;;;;5013753;28;20211;-60
2022/04/07 04:33:07;;;;;;;1.13;0.60;;;11.90;99.90;;;;;;5013481;28;20289;-61
2022/04/07 04:35:35;;;;;;;0.70;0.70;;;11.90;99.90;;;;;;5013636;28;20236;-61
2022/04/07 04:38:02;;;;;;;1.40;0.90;;;11.80;99.90;;;;;;5014022;28;20209;-61
2022/04/07 04:40:29;;;;;;;1.83;1.03;;;11.70;99.90;;;;;;5013734;28;20207;-62
2022/04/07 04:42:55;;;;;;;0.80;0.80;;;11.70;99.90;;;;;;5013707;28;20203;-63
2022/04/07 04:45:22;;;;;;;0.83;0.70;;;11.70;99.90;;;;;;5013170;28;20231;-60
2022/04/07 04:47:52;;;;;;;2.00;0.60;;;11.80;99.90;;;;;;5012944;28;20221;-60
2022/04/07 04:50:19;;;;;;;1.10;0.70;;;11.80;99.90;;;;;;5012879;28;20225;-61
2022/04/07 04:52:47;;;;;;;1.77;0.53;;;11.90;99.90;;;;;;5013310;28;20231;-60
2022/04/07 04:55:14;;;;;;;1.50;0.60;;;12.00;99.90;;;;;;5013107;28;20284;-60
2022/04/07 04:57:41;;;;;;;1.37;0.70;;;12.10;99.90;;;;;;5013188;28;20214;-60
2022/04/07 05:00:08;;;;;;;0.43;0.37;;;12.20;99.90;;;;;;5013163;28;20222;-61
2022/04/07 05:02:37;;;;;;;2.90;0.60;;;12.20;99.90;;;;;;5013162;28;20214;-61
2022/04/07 05:05:05;;;;;;;0.67;0.53;;;12.20;99.90;;;;;;5012911;28;20254;-61
2022/04/07 05:07:32;;;;;;;1.50;0.70;;;12.20;99.90;;;;;;5012943;28;20593;-60
2022/04/07 05:10:00;;;;;;;2.10;1.53;;;12.20;99.90;;;;;;5013012;28;20211;-62
2022/04/07 05:12:27;;;;;;;2.13;0.50;;;12.30;99.90;;;;;;5012956;28;20231;-62
2022/04/07 05:14:54;;;;;;;0.40;0.40;;;12.30;99.90;;;;;;5012650;28;20278;-62
2022/04/07 05:17:21;;;;;;;0.67;0.50;;;12.30;99.90;;;;;;5012661;28;20211;-62
2022/04/07 05:19:48;;;;;;;0.60;0.47;;;12.40;99.90;;;;;;5012984;28;20207;-62
2022/04/07 05:22:15;;;;;;;1.77;0.40;;;12.50;99.90;;;;;;5012829;28;20203;-62
2022/04/07 05:24:41;;;;;;;0.53;0.53;;;12.60;99.90;;;;;;5012581;28;20776;-61
2022/04/07 05:27:09;;;;;;;1.13;1.00;;;12.60;99.90;;;;;;5012702;28;20241;-62
2022/04/07 05:29:36;;;;;;;0.50;0.50;;;12.60;99.90;;;;;;5012730;28;20215;-61
2022/04/07 05:32:03;;;;;;;0.30;0.30;;;12.80;99.90;;;;;;5012376;28;20210;-60
2022/04/07 05:34:30;;;;;;;1.53;0.70;;;12.80;99.90;;;;;;5012337;28;20231;-61
2022/04/07 05:36:56;;;;;;;1.13;0.50;;;12.90;99.90;;;;;;5012349;28;20211;-61
2022/04/07 05:39:23;;;;;;;3.83;0.60;;;13.00;99.90;;;;;;5012611;28;20265;-61
2022/04/07 05:41:50;;;;;;;1.40;0.70;;;13.10;99.90;;;;;;5012410;28;20209;-61
2022/04/07 05:44:18;;;;;;;1.43;0.60;;;13.20;99.90;;;;;;5012566;28;20203;-60
2022/04/07 05:46:45;;;;;;;0.90;0.60;;;13.30;99.90;;;;;;5012453;28;20211;-61
2022/04/07 05:49:12;;;;;;;1.23;0.50;;;13.40;99.90;;;;;;5012756;28;20233;-61
2022/04/07 05:51:38;;;;;;;1.50;0.70;;;13.50;99.90;;;;;;5012873;28;20224;-61
2022/04/07 05:54:05;;;;;;;0.93;0.53;;;13.60;99.90;;;;;;5012408;28;20223;-61
2022/04/07 05:56:32;;;;;;;1.07;0.60;;;13.60;99.90;;;;;;5012045;28;20207;-61
2022/04/07 05:58:59;;;;;;;0.73;0.50;;;13.70;99.90;;;;;;5012426;28;20211;-61
2022/04/07 06:01:30;;;;;;;1.90;0.47;;;13.80;99.90;;;;;;5012508;28;20565;-61
2022/04/07 06:03:56;;;;;;;1.60;0.20;;;13.90;99.90;;;;;;5012664;28;20257;-61
2022/04/07 06:06:23;;;;;;;0.60;0.40;;;14.10;99.90;;;;;;5011986;28;20645;-61
2022/04/07 06:08:50;;;;;;;1.40;0.50;;;14.10;99.90;;;;;;5012154;28;20214;-61
2022/04/07 06:11:16;;;;;;;0.97;0.57;;;14.30;99.90;;;;;;5011887;28;20215;-62
2022/04/07 06:13:43;;;;;;;0.57;0.37;;;14.60;99.90;;;;;;5012343;28;20252;-61
2022/04/07 06:16:10;;;;;;;1.13;0.30;;;15.90;99.90;;;;;;5012009;28;20230;-62
2022/04/07 06:18:38;;;;;;;1.73;0.30;;;17.50;99.90;;;;;;5012042;28;20670;-62
2022/04/07 06:21:05;;;;;;;2.10;1.85;;;18.70;98.20;;;;;;5012098;28;20214;-62
2022/04/07 06:23:32;;;;;;;1.60;1.08;;;19.70;96.40;;;;;;5011833;28;20202;-61
2022/04/07 06:25:59;;;;;;;2.70;1.38;;;20.40;95.10;;;;;;5011779;28;20296;-62
2022/04/07 06:28:26;;;;;;;0.88;0.40;;;20.50;94.10;;;;;;5012102;28;20210;-62
2022/04/07 06:30:54;;;;;;;1.52;0.50;;;20.40;93.50;;;;;;5012046;28;20203;-62
2022/04/07 06:33:21;;;;;;;1.52;0.38;;;20.30;93.40;;;;;;5011745;28;20313;-62
2022/04/07 06:35:49;;;;;;;0.65;0.30;;;19.90;93.20;;;;;;5011655;28;20227;-62
2022/04/07 06:38:16;;;;;;;0.60;0.20;;;19.30;93.50;;;;;;5011894;28;20210;-61
2022/04/07 06:40:43;;;;;;;0.38;0.30;;;18.60;94.10;;;;;;5012416;28;20211;-62
2022/04/07 06:43:09;;;;;;;0.73;0.30;;;17.90;94.70;;;;;;5011782;28;20265;-62
2022/04/07 06:45:36;;;;;;;2.83;0.40;;;17.10;95.50;;;;;;5011482;28;20588;-62
2022/04/07 06:48:03;;;;;;;0.90;0.20;;;16.40;96.50;;;;;;5011707;28;20211;-61
2022/04/07 06:50:31;;;;;;;1.43;0.40;;;16.00;97.20;;;;;;5011613;28;20277;-62
2022/04/07 06:53:00;;;;;;;1.23;0.60;;;15.60;98.10;;;;;;5011969;28;20910;-61
2022/04/07 06:55:28;;;;;;;2.47;0.60;;;15.40;98.80;;;;;;5011699;28;20239;-61
2022/04/07 06:57:56;;;;;;;0.60;0.40;;;15.20;98.80;;;;;;5011442;28;20218;-61
2022/04/07 07:00:24;;;;;;;0.47;0.40;;;15.10;98.80;;;;;;5011555;28;20588;-61
2022/04/07 07:02:52;;;;;;;5.20;1.43;;;15.00;99.00;;;;;;5011845;28;20553;-61
2022/04/07 07:05:20;;;;;;;1.97;1.70;;;14.90;99.20;;;;;;5011363;28;20345;-62
2022/04/07 07:07:47;;;;;;;0.70;0.40;;;14.80;99.40;;;;;;5011719;28;20222;-62
2022/04/07 07:10:18;;;;;;;0.60;0.40;;;14.90;99.50;;;;;;5011869;28;20211;-62
2022/04/07 07:12:45;;;;;;;1.93;0.40;;;15.00;99.40;;;;;;5011596;28;20281;-62
2022/04/07 07:15:12;;;;;;;0.50;0.10;;;15.00;99.30;;;;;;5014564;28;20234;-62
2022/04/07 07:17:39;;;;;;;0.43;0.30;;;15.10;99.10;;;;;;5014882;28;20305;-62
2022/04/07 07:20:07;;;;;;;3.10;0.50;;;14.90;99.00;;;;;;5015304;28;20288;-62
2022/04/07 07:22:33;;;;;;;1.17;0.30;;;14.90;99.00;;;;;;5014995;28;20265;-62
2022/04/07 07:25:00;;;;;;;1.57;0.30;;;14.90;99.10;;;;;;5014730;28;20230;-62
2022/04/07 07:27:28;;;;;;;0.30;0.17;;;15.00;98.80;;;;;;5015199;28;20211;-62
2022/04/07 07:29:55;;;;;;;1.50;0.37;;;15.20;98.80;;;;;;5014729;28;20623;-62
2022/04/07 07:32:21;;;;;;;2.10;0.47;;;15.40;98.80;;;;;;5014645;28;20674;-62
2022/04/07 07:34:48;;;;;;;3.63;2.10;;;15.70;98.50;;;;;;5014476;28;20722;-62
2022/04/07 07:37:18;;;;;;;0.63;0.30;;;15.80;98.10;;;;;;5014542;28;20613;-62
2022/04/07 07:39:45;;;;;;;3.73;0.30;;;16.00;98.30;;;;;;5015035;28;20298;-62
2022/04/07 07:42:12;;;;;;;0.77;0.40;;;16.10;97.80;;;;;;5014663;28;20558;-62
2022/04/07 07:44:40;;;;;;;0.57;0.30;;;16.20;97.60;;;;;;5014402;28;20627;-62
2022/04/07 07:47:06;;;;;;;0.67;0.33;;;16.20;97.50;;;;;;5014037;28;20623;-62
2022/04/07 07:49:33;;;;;;;0.57;0.30;;;16.10;97.20;;;;;;5014561;28;20605;-62
2022/04/07 07:52:00;;;;;;;1.13;0.30;;;16.10;97.50;;;;;;5014312;28;20635;-62
2022/04/07 07:54:26;;;;;;;0.30;0.30;;;16.10;97.50;;;;;;5014687;28;20265;-63
2022/04/07 07:56:54;;;;;;;0.40;0.20;;;16.00;97.40;;;;;;5014300;28;20253;-62
2022/04/07 07:59:21;;;;;;;1.50;0.40;;;15.80;97.70;;;;;;5014296;28;20207;-60
2022/04/07 08:01:49;;;;;;;0.40;0.30;;;15.70;97.80;;;;;;5014487;28;20210;-60
2022/04/07 08:04:16;;;;;;;1.80;0.30;;;15.50;98.00;;;;;;5014075;28;20203;-60
2022/04/07 08:06:43;;;;;;;0.57;0.33;;;15.40;98.30;;;;;;5013587;28;20214;-66
2022/04/07 08:09:10;;;;;;;3.70;0.97;;;15.50;98.30;;;;;;5014263;28;20218;-60
2022/04/07 08:11:37;;;;;;;0.83;0.60;;;15.50;98.30;;;;;;5014011;28;20302;-60
2022/04/07 08:14:03;;;;;;;1.10;0.53;;;15.50;98.30;;;;;;5013928;28;20226;-60
2022/04/07 08:16:30;;;;;;;3.67;0.70;;;15.40;98.70;;;;;;5014343;28;20211;-60
2022/04/07 08:18:58;;;;;;;1.37;0.50;;;15.20;98.60;;;;;;5014600;28;20214;-60
2022/04/07 08:21:25;;;;;;;1.03;0.40;;;15.10;98.80;;;;;;5014251;28;20207;-60
2022/04/07 08:23:52;;;;;;;0.80;0.30;;;15.10;98.90;;;;;;5014000;28;20261;-60
2022/04/07 08:26:18;;;;;;;2.40;0.40;;;15.20;99.20;;;;;;5012564;28;20233;-61
2022/04/07 08:28:45;;;;;;;6.97;0.80;;;15.30;98.70;;;;;;5013569;28;20239;-60
2022/04/07 08:31:12;;;;;;;3.43;0.47;;;15.20;98.70;;;;;;5013224;28;20667;-61
2022/04/07 08:33:39;;;;;;;3.17;0.43;;;15.00;98.80;;;;;;5013383;28;20265;-60
2022/04/07 08:36:07;;;;;;;3.63;0.40;;;15.10;99.00;;;;;;5013278;28;20287;-61
2022/04/07 08:38:34;;;;;;;1.17;0.43;;;15.20;99.00;;;;;;5013541;28;20628;-61
2022/04/07 08:41:01;;;;;;;1.90;0.37;;;15.40;98.80;;;;;;5013428;28;20269;-60
2022/04/07 08:43:28;;;;;;;3.60;0.70;;;15.50;98.50;;;;;;5013562;28;20203;-61
2022/04/07 08:45:55;;;;;;;0.87;0.50;;;15.60;98.40;;;;;;5013358;28;20226;-60
2022/04/07 08:48:22;;;;;;;2.47;0.40;;;15.60;98.30;;;;;;5013492;28;20474;-60
2022/04/07 08:50:51;;;;;;;1.60;0.70;;;15.60;98.30;;;;;;5013391;28;20280;-60
2022/04/07 08:53:19;;;;;;;0.87;0.63;;;15.50;98.70;;;;;;5013058;28;20273;-61
2022/04/07 08:55:46;;;;;;;2.80;0.83;;;15.50;99.30;;;;;;5012792;28;20281;-60
2022/04/07 08:58:17;;;;;;;0.63;0.30;;;15.30;99.20;;;;;;5013355;28;20207;-60
2022/04/07 09:00:44;;;;;;;3.67;0.53;;;15.30;99.20;;;;;;5012788;28;20675;-60
2022/04/07 09:03:10;;;;;;;0.73;0.23;;;15.30;99.30;;;;;;5012977;28;20686;-60
2022/04/07 09:05:53;;;;;;;0.30;0.30;;;15.20;98.90;;;;;;5013369;28;20234;-60
2022/04/07 09:08:21;;;;;;;1.80;0.43;;;15.20;98.90;;;;;;5013693;28;20269;-60
2022/04/07 09:10:53;;;;;;;1.20;0.30;;;15.20;99.00;;;;;;5010324;28;20447;-60
2022/04/07 09:13:20;;;;;;;1.90;0.50;;;15.20;99.10;;;;;;5013412;28;20306;-60
2022/04/07 09:15:48;;;;;;;1.27;0.37;;;15.20;98.90;;;;;;5012675;28;20239;-60
2022/04/07 09:18:24;;;;;;;2.20;0.40;;;15.20;98.90;;;;;;5012384;28;20211;-61
2022/04/07 09:20:50;;;;;;;3.97;0.63;;;15.10;98.90;;;;;;5012308;28;20297;-60
2022/04/07 09:23:18;;;;;;;3.83;0.40;;;15.00;98.90;;;;;;5012612;28;20218;-60
2022/04/07 09:25:49;;;;;;;2.30;0.27;;;14.90;99.00;;;;;;5012430;28;20313;-60
2022/04/07 09:28:28;;;;;;;0.50;0.30;;;15.00;98.90;;;;;;5012792;28;20249;-61
2022/04/07 09:30:57;;;;;;;1.33;0.90;;;14.90;98.80;;;;;;5012290;28;20302;-60
2022/04/07 09:33:24;;;;;;;3.70;0.47;;;14.90;98.80;;;;;;5012476;28;20687;-60
2022/04/07 09:36:02;;;;;;;4.53;0.70;;;14.90;98.60;;;;;;5000885;28;20286;-62
2022/04/07 09:38:30;;;;;;;1.50;0.57;;;14.90;98.50;;;;;;5012250;28;20207;-62
2022/04/07 09:41:05;;;;;;;2.00;0.30;;;15.00;99.10;;;;;;5010068;28;20302;-61
2022/04/07 09:43:41;;;;;;;2.00;0.40;;;15.00;98.80;;;;;;5011702;28;20589;-62
2022/04/07 09:46:09;;;;;;;1.27;0.53;;;15.20;99.20;;;;;;5011909;28;20230;-62
2022/04/07 09:48:36;;;;;;;1.53;0.47;;;15.20;99.90;;;;;;5012310;28;20266;-60
2022/04/07 09:51:05;;;;;;;2.77;0.50;;;15.20;99.90;;;;;;5012309;28;20214;-61
2022/04/07 09:53:36;;;;;;;2.57;0.40;;;15.20;99.90;;;;;;5012670;28;20741;-61
2022/04/07 09:56:06;;;;;;;1.13;0.70;;;15.30;99.90;;;;;;5011314;28;20325;-64
2022/04/07 09:58:33;;;;;;;0.87;0.40;;;15.30;99.90;;;;;;5011861;28;20293;-64
2022/04/07 10:01:02;;;;;;;2.37;0.20;;;15.30;99.90;;;;;;5011190;28;20302;-62
2022/04/07 10:03:30;;;;;;;1.13;0.50;;;15.30;99.90;;;;;;5011942;28;20217;-61
2022/04/07 10:05:57;;;;;;;2.27;0.30;;;15.50;99.90;;;;;;5011935;28;20258;-63
2022/04/07 10:08:25;;;;;;;1.00;0.33;;;15.70;99.90;;;;;;5011426;28;20218;-62
2022/04/07 10:10:52;;;;;;;1.43;0.40;;;15.80;99.90;;;;;;5011685;28;20726;-63
2022/04/07 10:13:20;;;;;;;2.40;1.20;;;15.90;99.90;;;;;;5011834;28;20210;-62
2022/04/07 10:15:47;;;;;;;0.37;0.30;;;16.00;99.90;;;;;;5011247;28;20706;-63
2022/04/07 10:18:21;;;;;;;1.10;0.40;;;15.90;99.50;;;;;;5011682;28;20210;-61
2022/04/07 10:20:50;;;;;;;1.57;0.57;;;16.00;99.80;;;;;;5011328;28;20590;-65
2022/04/07 10:23:31;;;;;;;1.43;0.80;;;16.00;98.90;;;;;;5011731;28;20269;-60
2022/04/07 10:26:00;;;;;;;3.20;0.57;;;15.90;99.50;;;;;;5011503;28;20293;-61
2022/04/07 10:28:28;;;;;;;0.73;0.40;;;15.90;98.90;;;;;;5011775;28;20636;-61
2022/04/07 10:30:55;;;;;;;1.23;0.43;;;15.90;99.00;;;;;;5012011;28;20253;-61
2022/04/07 10:33:49;;;;;;;0.83;0.40;;;15.90;98.60;;;;;;5011224;28;20211;-61
2022/04/07 10:36:17;;;;;;;1.37;0.50;;;16.10;98.60;;;;;;4976056;28;20273;-61
2022/04/07 10:38:46;;;;;;;1.53;0.67;;;16.20;98.30;;;;;;5011748;28;20203;-61
2022/04/07 10:41:33;;;;;;;1.37;0.37;;;16.30;98.00;;;;;;5011584;28;20213;-63
2022/04/07 10:44:11;;;;;;;0.70;0.30;;;16.10;98.00;;;;;;5010764;28;20667;-62
2022/04/07 10:46:38;;;;;;;5.83;0.80;;;16.00;97.90;;;;;;5011396;28;20729;-58
2022/04/07 10:49:06;;;;;;;1.40;0.30;;;16.10;97.80;;;;;;5013308;28;20233;-58
2022/04/07 10:51:45;;;;;;;1.30;0.43;;;16.10;97.70;;;;;;5015214;28;20218;-58
2022/04/07 10:54:12;;;;;;;0.73;0.20;;;16.10;97.70;;;;;;5014811;28;20230;-58
2022/04/07 10:56:40;;;;;;;0.87;0.40;;;16.30;97.70;;;;;;5014503;28;20283;-57
2022/04/07 10:59:19;;;;;;;3.80;0.60;;;16.60;97.60;;;;;;5014868;28;20210;-58
2022/04/07 11:02:02;;;;;;;0.60;0.30;;;17.10;97.10;;;;;;5014617;28;20218;-58
2022/04/07 11:04:44;;;;;;;1.00;0.70;;;17.50;96.40;;;;;;5014633;28;20778;-58
2022/04/07 11:07:16;;;;;;;0.40;0.40;;;17.60;96.20;;;;;;5014714;28;20242;-58
2022/04/07 11:09:48;;;;;;;0.53;0.20;;;17.50;96.20;;;;;;5014664;28;20211;-58
2022/04/07 11:12:19;;;;;;;0.33;0.13;;;17.50;96.20;;;;;;5014888;28;20585;-58
2022/04/07 11:14:48;;;;;;;0.40;0.20;;;17.40;96.20;;;;;;5014479;28;20706;-58
2022/04/07 11:17:23;;;;;;;1.17;0.40;;;17.30;96.40;;;;;;5014527;28;20211;-58
2022/04/07 11:20:03;;;;;;;3.90;0.40;;;17.10;96.40;;;;;;5014962;28;20289;-58
2022/04/07 11:22:47;;;;;;;2.33;0.40;;;17.00;96.80;;;;;;5014323;28;20302;-57
2022/04/07 11:25:14;;;;;;;2.37;0.43;;;17.00;96.70;;;;;;5014673;28;20777;-58
2022/04/07 11:27:44;;;;;;;2.07;0.30;;;17.00;96.70;;;;;;5014047;28;20432;-58
2022/04/07 11:30:14;;;;;;;3.60;0.50;;;17.10;96.70;;;;;;5014371;28;20706;-58
2022/04/07 11:33:27;;;;;;;0.68;0.13;;;17.30;96.50;;;;;;5014160;28;20268;-58
2022/04/07 11:36:37;;;;;;;1.53;0.30;;;17.50;96.10;;;;;;5013788;28;20242;-58
2022/04/07 11:39:04;;;;;;;1.80;0.47;;;17.60;95.80;;;;;;5014542;28;20581;-58
2022/04/07 11:41:41;;;;;;;4.63;0.40;;;17.60;96.00;;;;;;5014245;28;20214;-58
2022/04/07 11:44:12;;;;;;;4.30;0.60;;;17.70;95.80;;;;;;5014293;28;20210;-58
2022/04/07 11:46:40;;;;;;;4.75;0.45;;;17.90;95.10;;;;;;5013865;28;20214;-59
2022/04/07 11:49:09;;;;;;;0.45;0.30;;;18.10;95.10;;;;;;5014528;28;20297;-60
2022/04/07 11:51:39;;;;;;;3.10;0.28;;;18.30;94.80;;;;;;5014171;28;20211;-62
2022/04/07 11:54:06;;;;;;;2.65;0.40;;;18.50;94.70;;;;;;5014122;28;20238;-63
2022/04/07 11:56:34;;;;;;;1.98;0.20;;;18.60;94.50;;;;;;5012262;28;20218;-60
2022/04/07 11:59:03;;;;;;;7.70;0.70;;;18.70;94.30;;;;;;5013608;28;20325;-61
2022/04/07 12:01:30;;;;;;;0.85;0.40;;;18.60;94.40;;;;;;5014446;28;20202;-61
2022/04/07 12:04:00;;;;;;;0.85;0.20;;;18.60;94.30;;;;;;5014447;28;20211;-61
2022/04/07 12:06:29;;;;;;;4.15;0.50;;;18.60;94.20;;;;;;5013817;28;20296;-63
2022/04/07 12:08:56;;;;;;;1.70;0.40;;;18.40;94.20;;;;;;5013493;28;20203;-60
2022/04/07 12:11:24;;;;;;;4.55;0.65;;;18.50;94.30;;;;;;5013562;28;20202;-62
2022/04/07 12:13:52;;;;;;;1.05;0.35;;;18.40;94.60;;;;;;5013805;28;20626;-62
2022/04/07 12:16:19;;;;;;;2.50;0.30;;;18.40;94.80;;;;;;5013389;28;20242;-61
2022/04/07 12:18:53;;;;;;;3.83;0.75;;;18.60;94.60;;;;;;5013664;28;20211;-63
2022/04/07 12:21:21;;;;;;;4.22;0.50;;;18.60;94.40;;;;;;5013026;28;20277;-64
2022/04/07 12:23:50;;;;;;;3.25;0.50;;;18.40;94.40;;;;;;5012352;28;20754;-62
2022/04/07 12:26:16;;;;;;;0.95;0.10;;;18.40;94.60;;;;;;5011657;28;20235;-60
2022/04/07 12:28:43;;;;;;;3.85;0.30;;;18.30;94.60;;;;;;5013423;28;20698;-61
2022/04/07 12:31:12;;;;;;;2.33;0.68;;;18.10;94.80;;;;;;5012642;28;20221;-60
2022/04/07 12:33:41;;;;;;;0.10;0.10;;;18.00;95.00;;;;;;5013238;28;20239;-60
2022/04/07 12:36:09;;;;;;;1.63;0.20;;;17.80;95.20;;;;;;5013088;28;20234;-58
2022/04/07 12:38:36;;;;;;;8.38;1.13;;;17.70;95.60;;;;;;5013059;28;20206;-61
2022/04/07 12:41:12;;;;;;;5.13;0.50;;;17.80;95.70;;;;;;5013772;28;20210;-61
2022/04/07 12:43:51;;;;;;;8.27;0.70;;;17.80;95.90;;;;;;5011887;28;20218;-62
2022/04/07 12:46:18;;;;;;;1.52;0.28;;;17.90;95.80;;;;;;5012334;28;20640;-61
2022/04/07 12:49:04;;;;;;;1.40;0.20;;;17.90;95.70;;;;;;5012572;28;20210;-61
2022/04/07 12:51:33;;;;;;;0.95;0.40;;;17.90;95.90;;;;;;5013227;28;20222;-61
2022/04/07 12:54:10;;;;;;;1.48;0.30;;;17.90;96.00;;;;;;5013071;28;20582;-60